sensor_id;sensor_type;location;lat;lon;timestamp;P1;durP1;ratioP1;P2;durP2;ratioP2
14817;SDS011;7500;57.698;11.986;2023-05-14T00:01:13;5.93;;;4.17;;
14817;SDS011;7500;57.698;11.986;2023-05-14T00:03:41;6.23;;;4.13;;
14817;SDS011;7500;57.698;11.986;2023-05-14T00:06:07;12.50;;;4.10;;
14817;SDS011;7500;57.698;11.986;2023-05-14T00:08:34;11.10;;;5.13;;
14817;SDS011;7500;57.698;11.986;2023-05-14T00:11:01;9.60;;;4.20;;
14817;SDS011;7500;57.698;11.986;2023-05-14T00:13:28;11.07;;;4.00;;
14817;SDS011;7500;57.698;11.986;2023-05-14T00:15:54;5.40;;;3.77;;
14817;SDS011;7500;57.698;11.986;2023-05-14T00:18:21;7.70;;;4.00;;
14817;SDS011;7500;57.698;11.986;2023-05-14T00:20:49;7.40;;;3.80;;
14817;SDS011;7500;57.698;11.986;2023-05-14T00:23:19;8.47;;;3.63;;
14817;SDS011;7500;57.698;11.986;2023-05-14T00:25:45;8.10;;;3.83;;
14817;SDS011;7500;57.698;11.986;2023-05-14T00:28:12;7.47;;;4.00;;
14817;SDS011;7500;57.698;11.986;2023-05-14T00:30:38;11.13;;;3.90;;
14817;SDS011;7500;57.698;11.986;2023-05-14T00:33:05;4.40;;;3.80;;
14817;SDS011;7500;57.698;11.986;2023-05-14T00:35:32;5.67;;;3.80;;
14817;SDS011;7500;57.698;11.986;2023-05-14T00:38:00;9.17;;;3.80;;
14817;SDS011;7500;57.698;11.986;2023-05-14T00:40:27;5.73;;;3.77;;
14817;SDS011;7500;57.698;11.986;2023-05-14T00:42:54;7.90;;;3.37;;
14817;SDS011;7500;57.698;11.986;2023-05-14T00:45:20;5.93;;;3.77;;
14817;SDS011;7500;57.698;11.986;2023-05-14T00:47:47;8.20;;;3.43;;
14817;SDS011;7500;57.698;11.986;2023-05-14T00:50:14;5.87;;;3.33;;
14817;SDS011;7500;57.698;11.986;2023-05-14T00:52:41;10.87;;;3.83;;
14817;SDS011;7500;57.698;11.986;2023-05-14T00:55:09;7.00;;;3.53;;
14817;SDS011;7500;57.698;11.986;2023-05-14T00:57:40;7.30;;;3.33;;
14817;SDS011;7500;57.698;11.986;2023-05-14T01:00:07;6.33;;;3.50;;
14817;SDS011;7500;57.698;11.986;2023-05-14T01:02:34;4.00;;;3.60;;
14817;SDS011;7500;57.698;11.986;2023-05-14T01:05:00;3.30;;;3.00;;
14817;SDS011;7500;57.698;11.986;2023-05-14T01:07:29;6.07;;;3.70;;
14817;SDS011;7500;57.698;11.986;2023-05-14T01:09:58;6.40;;;3.60;;
14817;SDS011;7500;57.698;11.986;2023-05-14T01:12:28;3.50;;;3.20;;
14817;SDS011;7500;57.698;11.986;2023-05-14T01:15:01;5.97;;;2.93;;
14817;SDS011;7500;57.698;11.986;2023-05-14T01:17:31;5.53;;;3.63;;
14817;SDS011;7500;57.698;11.986;2023-05-14T01:19:58;8.57;;;3.13;;
14817;SDS011;7500;57.698;11.986;2023-05-14T01:22:27;10.30;;;3.40;;
14817;SDS011;7500;57.698;11.986;2023-05-14T01:24:54;6.23;;;3.20;;
14817;SDS011;7500;57.698;11.986;2023-05-14T01:27:22;8.20;;;3.07;;
14817;SDS011;7500;57.698;11.986;2023-05-14T01:29:52;6.97;;;3.33;;
14817;SDS011;7500;57.698;11.986;2023-05-14T01:32:22;3.73;;;3.20;;
14817;SDS011;7500;57.698;11.986;2023-05-14T01:34:50;4.63;;;2.77;;
14817;SDS011;7500;57.698;11.986;2023-05-14T01:37:17;3.93;;;3.13;;
14817;SDS011;7500;57.698;11.986;2023-05-14T01:39:45;3.40;;;2.80;;
14817;SDS011;7500;57.698;11.986;2023-05-14T01:42:13;5.30;;;3.00;;
14817;SDS011;7500;57.698;11.986;2023-05-14T01:44:40;4.07;;;3.33;;
14817;SDS011;7500;57.698;11.986;2023-05-14T01:47:07;7.13;;;3.37;;
14817;SDS011;7500;57.698;11.986;2023-05-14T01:49:33;6.20;;;3.40;;
14817;SDS011;7500;57.698;11.986;2023-05-14T01:52:01;3.40;;;3.10;;
14817;SDS011;7500;57.698;11.986;2023-05-14T01:54:27;3.20;;;2.90;;
14817;SDS011;7500;57.698;11.986;2023-05-14T01:56:56;6.80;;;3.17;;
14817;SDS011;7500;57.698;11.986;2023-05-14T01:59:22;3.00;;;2.80;;
14817;SDS011;7500;57.698;11.986;2023-05-14T02:01:49;4.07;;;3.07;;
14817;SDS011;7500;57.698;11.986;2023-05-14T02:04:15;6.50;;;2.93;;
14817;SDS011;7500;57.698;11.986;2023-05-14T02:06:43;3.60;;;2.90;;
14817;SDS011;7500;57.698;11.986;2023-05-14T02:09:09;3.10;;;2.80;;
14817;SDS011;7500;57.698;11.986;2023-05-14T02:11:36;5.83;;;3.17;;
14817;SDS011;7500;57.698;11.986;2023-05-14T02:14:04;5.10;;;3.20;;
14817;SDS011;7500;57.698;11.986;2023-05-14T02:16:31;4.70;;;2.87;;
14817;SDS011;7500;57.698;11.986;2023-05-14T02:18:57;6.23;;;3.33;;
14817;SDS011;7500;57.698;11.986;2023-05-14T02:21:24;3.40;;;3.10;;
14817;SDS011;7500;57.698;11.986;2023-05-14T02:23:51;6.93;;;3.10;;
14817;SDS011;7500;57.698;11.986;2023-05-14T02:26:17;3.97;;;3.20;;
14817;SDS011;7500;57.698;11.986;2023-05-14T02:28:45;6.80;;;3.10;;
14817;SDS011;7500;57.698;11.986;2023-05-14T02:31:13;6.23;;;2.90;;
14817;SDS011;7500;57.698;11.986;2023-05-14T02:33:41;6.97;;;3.10;;
14817;SDS011;7500;57.698;11.986;2023-05-14T02:36:08;3.50;;;3.20;;
14817;SDS011;7500;57.698;11.986;2023-05-14T02:38:34;7.80;;;3.23;;
14817;SDS011;7500;57.698;11.986;2023-05-14T02:41:01;4.17;;;3.37;;
14817;SDS011;7500;57.698;11.986;2023-05-14T02:43:28;3.70;;;3.17;;
14817;SDS011;7500;57.698;11.986;2023-05-14T02:45:54;5.07;;;2.90;;
14817;SDS011;7500;57.698;11.986;2023-05-14T02:48:22;4.77;;;2.80;;
14817;SDS011;7500;57.698;11.986;2023-05-14T02:50:49;5.27;;;2.90;;
14817;SDS011;7500;57.698;11.986;2023-05-14T02:53:16;5.67;;;3.27;;
14817;SDS011;7500;57.698;11.986;2023-05-14T02:55:42;3.47;;;3.17;;
14817;SDS011;7500;57.698;11.986;2023-05-14T02:58:09;5.90;;;3.27;;
14817;SDS011;7500;57.698;11.986;2023-05-14T03:00:36;7.60;;;2.97;;
14817;SDS011;7500;57.698;11.986;2023-05-14T03:03:02;3.90;;;2.90;;
14817;SDS011;7500;57.698;11.986;2023-05-14T03:05:31;4.53;;;3.10;;
14817;SDS011;7500;57.698;11.986;2023-05-14T03:07:57;6.47;;;2.97;;
14817;SDS011;7500;57.698;11.986;2023-05-14T03:10:24;5.07;;;3.23;;
14817;SDS011;7500;57.698;11.986;2023-05-14T03:12:50;3.00;;;2.70;;
14817;SDS011;7500;57.698;11.986;2023-05-14T03:15:17;5.47;;;2.77;;
14817;SDS011;7500;57.698;11.986;2023-05-14T03:17:44;9.13;;;2.93;;
14817;SDS011;7500;57.698;11.986;2023-05-14T03:20:11;3.70;;;2.93;;
14817;SDS011;7500;57.698;11.986;2023-05-14T03:22:39;6.63;;;3.33;;
14817;SDS011;7500;57.698;11.986;2023-05-14T03:25:06;5.70;;;2.90;;
14817;SDS011;7500;57.698;11.986;2023-05-14T03:27:33;7.67;;;3.30;;
14817;SDS011;7500;57.698;11.986;2023-05-14T03:29:59;5.33;;;3.07;;
14817;SDS011;7500;57.698;11.986;2023-05-14T03:32:26;4.77;;;2.93;;
14817;SDS011;7500;57.698;11.986;2023-05-14T03:34:52;5.83;;;3.00;;
14817;SDS011;7500;57.698;11.986;2023-05-14T03:37:19;5.50;;;2.90;;
14817;SDS011;7500;57.698;11.986;2023-05-14T03:39:47;5.73;;;2.90;;
14817;SDS011;7500;57.698;11.986;2023-05-14T03:42:14;3.50;;;3.00;;
14817;SDS011;7500;57.698;11.986;2023-05-14T03:44:41;3.87;;;2.90;;
14817;SDS011;7500;57.698;11.986;2023-05-14T03:47:07;6.93;;;3.47;;
14817;SDS011;7500;57.698;11.986;2023-05-14T03:49:34;5.40;;;3.10;;
14817;SDS011;7500;57.698;11.986;2023-05-14T03:52:00;5.93;;;3.20;;
14817;SDS011;7500;57.698;11.986;2023-05-14T03:54:27;4.17;;;3.40;;
14817;SDS011;7500;57.698;11.986;2023-05-14T03:56:55;4.47;;;3.07;;
14817;SDS011;7500;57.698;11.986;2023-05-14T03:59:22;5.50;;;3.10;;
14817;SDS011;7500;57.698;11.986;2023-05-14T04:01:49;6.13;;;2.80;;
14817;SDS011;7500;57.698;11.986;2023-05-14T04:04:15;4.17;;;2.90;;
14817;SDS011;7500;57.698;11.986;2023-05-14T04:06:42;5.70;;;2.90;;
14817;SDS011;7500;57.698;11.986;2023-05-14T04:09:09;6.90;;;3.00;;
14817;SDS011;7500;57.698;11.986;2023-05-14T04:11:36;5.50;;;2.90;;
14817;SDS011;7500;57.698;11.986;2023-05-14T04:14:04;3.87;;;3.10;;
14817;SDS011;7500;57.698;11.986;2023-05-14T04:16:31;3.33;;;3.03;;
14817;SDS011;7500;57.698;11.986;2023-05-14T04:18:59;4.33;;;2.90;;
14817;SDS011;7500;57.698;11.986;2023-05-14T04:21:25;6.10;;;3.37;;
14817;SDS011;7500;57.698;11.986;2023-05-14T04:23:52;4.23;;;2.90;;
14817;SDS011;7500;57.698;11.986;2023-05-14T04:26:18;6.83;;;2.97;;
14817;SDS011;7500;57.698;11.986;2023-05-14T04:28:45;5.63;;;3.10;;
14817;SDS011;7500;57.698;11.986;2023-05-14T04:31:13;6.53;;;3.37;;
14817;SDS011;7500;57.698;11.986;2023-05-14T04:33:40;6.67;;;3.03;;
14817;SDS011;7500;57.698;11.986;2023-05-14T04:36:07;4.83;;;3.50;;
14817;SDS011;7500;57.698;11.986;2023-05-14T04:38:33;5.97;;;3.40;;
14817;SDS011;7500;57.698;11.986;2023-05-14T04:41:00;3.47;;;3.13;;
14817;SDS011;7500;57.698;11.986;2023-05-14T04:43:27;4.87;;;3.03;;
14817;SDS011;7500;57.698;11.986;2023-05-14T04:45:54;7.23;;;3.40;;
14817;SDS011;7500;57.698;11.986;2023-05-14T04:48:22;6.33;;;3.20;;
14817;SDS011;7500;57.698;11.986;2023-05-14T04:50:48;3.10;;;2.80;;
14817;SDS011;7500;57.698;11.986;2023-05-14T04:53:16;4.20;;;2.90;;
14817;SDS011;7500;57.698;11.986;2023-05-14T04:55:42;6.27;;;3.10;;
14817;SDS011;7500;57.698;11.986;2023-05-14T04:58:09;5.50;;;3.03;;
14817;SDS011;7500;57.698;11.986;2023-05-14T05:00:36;6.93;;;3.10;;
14817;SDS011;7500;57.698;11.986;2023-05-14T05:03:04;5.23;;;2.87;;
14817;SDS011;7500;57.698;11.986;2023-05-14T05:05:32;5.37;;;2.83;;
14817;SDS011;7500;57.698;11.986;2023-05-14T05:07:59;5.47;;;2.97;;
14817;SDS011;7500;57.698;11.986;2023-05-14T05:10:25;8.07;;;2.80;;
14817;SDS011;7500;57.698;11.986;2023-05-14T05:12:52;8.30;;;3.33;;
14817;SDS011;7500;57.698;11.986;2023-05-14T05:15:19;6.37;;;3.20;;
14817;SDS011;7500;57.698;11.986;2023-05-14T05:17:45;8.20;;;2.93;;
14817;SDS011;7500;57.698;11.986;2023-05-14T05:20:12;6.20;;;2.90;;
14817;SDS011;7500;57.698;11.986;2023-05-14T05:22:40;4.83;;;3.00;;
14817;SDS011;7500;57.698;11.986;2023-05-14T05:25:06;3.50;;;2.93;;
14817;SDS011;7500;57.698;11.986;2023-05-14T05:27:33;5.20;;;3.00;;
14817;SDS011;7500;57.698;11.986;2023-05-14T05:30:00;4.23;;;3.20;;
14817;SDS011;7500;57.698;11.986;2023-05-14T05:32:28;7.77;;;2.90;;
14817;SDS011;7500;57.698;11.986;2023-05-14T05:34:54;7.13;;;3.20;;
14817;SDS011;7500;57.698;11.986;2023-05-14T05:37:21;7.07;;;2.90;;
14817;SDS011;7500;57.698;11.986;2023-05-14T05:39:49;4.90;;;2.97;;
14817;SDS011;7500;57.698;11.986;2023-05-14T05:42:15;3.75;;;2.58;;
14817;SDS011;7500;57.698;11.986;2023-05-14T05:44:42;5.07;;;2.73;;
14817;SDS011;7500;57.698;11.986;2023-05-14T05:47:09;5.93;;;2.80;;
14817;SDS011;7500;57.698;11.986;2023-05-14T05:49:35;2.93;;;2.63;;
14817;SDS011;7500;57.698;11.986;2023-05-14T05:52:02;3.63;;;2.80;;
14817;SDS011;7500;57.698;11.986;2023-05-14T05:54:29;7.07;;;2.37;;
14817;SDS011;7500;57.698;11.986;2023-05-14T05:56:58;6.33;;;2.40;;
14817;SDS011;7500;57.698;11.986;2023-05-14T05:59:25;3.17;;;2.53;;
14817;SDS011;7500;57.698;11.986;2023-05-14T06:01:52;8.73;;;4.50;;
14817;SDS011;7500;57.698;11.986;2023-05-14T06:04:18;3.53;;;2.80;;
14817;SDS011;7500;57.698;11.986;2023-05-14T06:06:45;4.30;;;2.80;;
14817;SDS011;7500;57.698;11.986;2023-05-14T06:09:12;3.60;;;2.70;;
14817;SDS011;7500;57.698;11.986;2023-05-14T06:11:38;4.40;;;2.47;;
14817;SDS011;7500;57.698;11.986;2023-05-14T06:14:06;3.67;;;2.67;;
14817;SDS011;7500;57.698;11.986;2023-05-14T06:16:33;3.40;;;2.60;;
14817;SDS011;7500;57.698;11.986;2023-05-14T06:18:59;4.43;;;2.60;;
14817;SDS011;7500;57.698;11.986;2023-05-14T06:21:26;6.30;;;2.40;;
14817;SDS011;7500;57.698;11.986;2023-05-14T06:23:53;4.73;;;2.60;;
14817;SDS011;7500;57.698;11.986;2023-05-14T06:26:19;6.67;;;3.20;;
14817;SDS011;7500;57.698;11.986;2023-05-14T06:28:46;6.80;;;2.80;;
14817;SDS011;7500;57.698;11.986;2023-05-14T06:31:14;8.27;;;3.20;;
14817;SDS011;7500;57.698;11.986;2023-05-14T06:33:41;3.80;;;2.60;;
14817;SDS011;7500;57.698;11.986;2023-05-14T06:36:07;3.13;;;2.47;;
14817;SDS011;7500;57.698;11.986;2023-05-14T06:38:34;5.50;;;2.70;;
14817;SDS011;7500;57.698;11.986;2023-05-14T06:41:01;5.77;;;2.87;;
14817;SDS011;7500;57.698;11.986;2023-05-14T06:43:28;6.67;;;3.30;;
14817;SDS011;7500;57.698;11.986;2023-05-14T06:45:54;8.60;;;3.03;;
14817;SDS011;7500;57.698;11.986;2023-05-14T06:48:22;4.50;;;2.70;;
14817;SDS011;7500;57.698;11.986;2023-05-14T06:50:51;3.77;;;2.93;;
14817;SDS011;7500;57.698;11.986;2023-05-14T06:53:18;3.20;;;2.67;;
14817;SDS011;7500;57.698;11.986;2023-05-14T06:55:45;4.40;;;2.50;;
14817;SDS011;7500;57.698;11.986;2023-05-14T06:58:12;5.70;;;2.80;;
14817;SDS011;7500;57.698;11.986;2023-05-14T07:00:39;4.43;;;3.03;;
14817;SDS011;7500;57.698;11.986;2023-05-14T07:03:05;4.37;;;2.80;;
14817;SDS011;7500;57.698;11.986;2023-05-14T07:05:33;6.03;;;3.00;;
14817;SDS011;7500;57.698;11.986;2023-05-14T07:08:00;7.13;;;2.77;;
14817;SDS011;7500;57.698;11.986;2023-05-14T07:10:27;5.50;;;2.90;;
14817;SDS011;7500;57.698;11.986;2023-05-14T07:12:55;3.53;;;2.80;;
14817;SDS011;7500;57.698;11.986;2023-05-14T07:15:21;4.70;;;3.10;;
14817;SDS011;7500;57.698;11.986;2023-05-14T07:17:48;5.27;;;3.07;;
14817;SDS011;7500;57.698;11.986;2023-05-14T07:20:14;4.00;;;2.60;;
14817;SDS011;7500;57.698;11.986;2023-05-14T07:22:42;7.23;;;3.17;;
14817;SDS011;7500;57.698;11.986;2023-05-14T07:25:09;4.87;;;2.60;;
14817;SDS011;7500;57.698;11.986;2023-05-14T07:27:36;4.23;;;3.03;;
14817;SDS011;7500;57.698;11.986;2023-05-14T07:30:02;3.93;;;2.80;;
14817;SDS011;7500;57.698;11.986;2023-05-14T07:32:29;3.67;;;2.60;;
14817;SDS011;7500;57.698;11.986;2023-05-14T07:34:56;7.17;;;3.17;;
14817;SDS011;7500;57.698;11.986;2023-05-14T07:37:22;5.67;;;2.90;;
14817;SDS011;7500;57.698;11.986;2023-05-14T07:39:51;5.60;;;2.93;;
14817;SDS011;7500;57.698;11.986;2023-05-14T07:42:18;3.73;;;2.80;;
14817;SDS011;7500;57.698;11.986;2023-05-14T07:44:45;3.83;;;3.00;;
14817;SDS011;7500;57.698;11.986;2023-05-14T07:47:11;4.40;;;3.00;;
14817;SDS011;7500;57.698;11.986;2023-05-14T07:49:38;5.43;;;2.73;;
14817;SDS011;7500;57.698;11.986;2023-05-14T07:52:04;3.83;;;3.00;;
14817;SDS011;7500;57.698;11.986;2023-05-14T07:54:31;3.67;;;2.70;;
14817;SDS011;7500;57.698;11.986;2023-05-14T07:56:59;5.87;;;3.10;;
14817;SDS011;7500;57.698;11.986;2023-05-14T07:59:26;3.83;;;2.77;;
14817;SDS011;7500;57.698;11.986;2023-05-14T08:01:52;6.27;;;3.20;;
14817;SDS011;7500;57.698;11.986;2023-05-14T08:04:19;4.67;;;3.03;;
14817;SDS011;7500;57.698;11.986;2023-05-14T08:06:47;6.83;;;2.90;;
14817;SDS011;7500;57.698;11.986;2023-05-14T08:09:14;3.00;;;2.80;;
14817;SDS011;7500;57.698;11.986;2023-05-14T08:11:41;7.10;;;2.97;;
14817;SDS011;7500;57.698;11.986;2023-05-14T08:14:09;6.47;;;3.10;;
14817;SDS011;7500;57.698;11.986;2023-05-14T08:16:36;4.63;;;3.40;;
14817;SDS011;7500;57.698;11.986;2023-05-14T08:19:02;7.57;;;3.03;;
14817;SDS011;7500;57.698;11.986;2023-05-14T08:21:29;4.30;;;3.10;;
14817;SDS011;7500;57.698;11.986;2023-05-14T08:23:55;5.57;;;3.50;;
14817;SDS011;7500;57.698;11.986;2023-05-14T08:26:22;3.50;;;3.20;;
14817;SDS011;7500;57.698;11.986;2023-05-14T08:28:49;4.80;;;2.90;;
14817;SDS011;7500;57.698;11.986;2023-05-14T08:31:17;5.00;;;3.37;;
14817;SDS011;7500;57.698;11.986;2023-05-14T08:33:43;7.17;;;2.90;;
14817;SDS011;7500;57.698;11.986;2023-05-14T08:36:10;5.70;;;3.00;;
14817;SDS011;7500;57.698;11.986;2023-05-14T08:38:36;4.30;;;3.23;;
14817;SDS011;7500;57.698;11.986;2023-05-14T08:41:04;6.03;;;3.03;;
14817;SDS011;7500;57.698;11.986;2023-05-14T08:43:33;4.67;;;3.10;;
14817;SDS011;7500;57.698;11.986;2023-05-14T08:46:03;5.20;;;3.20;;
14817;SDS011;7500;57.698;11.986;2023-05-14T08:48:32;7.30;;;2.97;;
14817;SDS011;7500;57.698;11.986;2023-05-14T08:51:00;7.17;;;3.10;;
14817;SDS011;7500;57.698;11.986;2023-05-14T08:53:27;4.90;;;3.00;;
14817;SDS011;7500;57.698;11.986;2023-05-14T08:55:53;3.67;;;2.63;;
14817;SDS011;7500;57.698;11.986;2023-05-14T08:58:20;7.57;;;2.90;;
14817;SDS011;7500;57.698;11.986;2023-05-14T09:00:47;4.73;;;3.20;;
14817;SDS011;7500;57.698;11.986;2023-05-14T09:03:13;3.33;;;2.87;;
14817;SDS011;7500;57.698;11.986;2023-05-14T09:05:41;5.27;;;2.93;;
14817;SDS011;7500;57.698;11.986;2023-05-14T09:08:08;6.43;;;2.90;;
14817;SDS011;7500;57.698;11.986;2023-05-14T09:10:35;3.33;;;2.77;;
14817;SDS011;7500;57.698;11.986;2023-05-14T09:13:04;3.20;;;2.67;;
14817;SDS011;7500;57.698;11.986;2023-05-14T09:15:30;3.60;;;3.07;;
14817;SDS011;7500;57.698;11.986;2023-05-14T09:17:58;5.00;;;3.03;;
14817;SDS011;7500;57.698;11.986;2023-05-14T09:20:24;8.20;;;3.13;;
14817;SDS011;7500;57.698;11.986;2023-05-14T09:22:53;4.90;;;2.97;;
14817;SDS011;7500;57.698;11.986;2023-05-14T09:25:25;3.87;;;3.00;;
14817;SDS011;7500;57.698;11.986;2023-05-14T09:27:51;4.03;;;2.93;;
14817;SDS011;7500;57.698;11.986;2023-05-14T09:30:19;5.17;;;3.20;;
14817;SDS011;7500;57.698;11.986;2023-05-14T09:32:45;4.97;;;2.97;;
14817;SDS011;7500;57.698;11.986;2023-05-14T09:35:16;4.37;;;3.10;;
14817;SDS011;7500;57.698;11.986;2023-05-14T09:37:44;3.50;;;2.70;;
14817;SDS011;7500;57.698;11.986;2023-05-14T09:40:12;7.43;;;3.17;;
14817;SDS011;7500;57.698;11.986;2023-05-14T09:42:39;4.97;;;2.77;;
14817;SDS011;7500;57.698;11.986;2023-05-14T09:45:06;4.43;;;3.00;;
14817;SDS011;7500;57.698;11.986;2023-05-14T09:47:33;3.87;;;3.00;;
14817;SDS011;7500;57.698;11.986;2023-05-14T09:50:00;3.80;;;3.10;;
14817;SDS011;7500;57.698;11.986;2023-05-14T09:52:26;3.83;;;3.17;;
14817;SDS011;7500;57.698;11.986;2023-05-14T09:54:53;4.00;;;3.10;;
14817;SDS011;7500;57.698;11.986;2023-05-14T09:57:21;5.97;;;3.27;;
14817;SDS011;7500;57.698;11.986;2023-05-14T09:59:47;6.37;;;3.40;;
14817;SDS011;7500;57.698;11.986;2023-05-14T10:02:15;4.25;;;3.00;;
14817;SDS011;7500;57.698;11.986;2023-05-14T10:04:45;4.70;;;3.00;;
14817;SDS011;7500;57.698;11.986;2023-05-14T10:07:13;3.43;;;3.00;;
14817;SDS011;7500;57.698;11.986;2023-05-14T10:09:40;6.57;;;3.23;;
14817;SDS011;7500;57.698;11.986;2023-05-14T10:12:08;7.67;;;3.30;;
14817;SDS011;7500;57.698;11.986;2023-05-14T10:14:37;11.50;;;7.67;;
14817;SDS011;7500;57.698;11.986;2023-05-14T10:17:05;4.63;;;3.23;;
14817;SDS011;7500;57.698;11.986;2023-05-14T10:19:42;5.60;;;3.23;;
14817;SDS011;7500;57.698;11.986;2023-05-14T10:22:09;5.87;;;3.30;;
14817;SDS011;7500;57.698;11.986;2023-05-14T10:24:36;6.13;;;3.13;;
14817;SDS011;7500;57.698;11.986;2023-05-14T10:27:03;3.57;;;3.20;;
14817;SDS011;7500;57.698;11.986;2023-05-14T10:29:31;3.30;;;2.70;;
14817;SDS011;7500;57.698;11.986;2023-05-14T10:32:01;7.10;;;3.20;;
14817;SDS011;7500;57.698;11.986;2023-05-14T10:34:33;4.93;;;3.07;;
14817;SDS011;7500;57.698;11.986;2023-05-14T10:37:01;5.07;;;3.20;;
14817;SDS011;7500;57.698;11.986;2023-05-14T10:39:44;4.73;;;2.60;;
14817;SDS011;7500;57.698;11.986;2023-05-14T10:42:11;5.00;;;2.83;;
14817;SDS011;7500;57.698;11.986;2023-05-14T10:44:40;4.27;;;2.70;;
14817;SDS011;7500;57.698;11.986;2023-05-14T10:47:09;5.77;;;2.70;;
14817;SDS011;7500;57.698;11.986;2023-05-14T10:49:36;4.03;;;2.40;;
14817;SDS011;7500;57.698;11.986;2023-05-14T10:52:03;3.87;;;2.53;;
14817;SDS011;7500;57.698;11.986;2023-05-14T10:54:33;5.43;;;2.27;;
14817;SDS011;7500;57.698;11.986;2023-05-14T10:57:00;6.70;;;2.60;;
14817;SDS011;7500;57.698;11.986;2023-05-14T10:59:27;5.23;;;2.40;;
14817;SDS011;7500;57.698;11.986;2023-05-14T11:01:55;4.90;;;2.63;;
14817;SDS011;7500;57.698;11.986;2023-05-14T11:04:23;9.10;;;2.60;;
14817;SDS011;7500;57.698;11.986;2023-05-14T11:06:50;8.70;;;2.27;;
14817;SDS011;7500;57.698;11.986;2023-05-14T11:09:18;5.73;;;2.37;;
14817;SDS011;7500;57.698;11.986;2023-05-14T11:11:46;2.43;;;2.20;;
14817;SDS011;7500;57.698;11.986;2023-05-14T11:14:12;3.93;;;2.00;;
14817;SDS011;7500;57.698;11.986;2023-05-14T11:16:39;3.20;;;2.47;;
14817;SDS011;7500;57.698;11.986;2023-05-14T11:19:06;5.70;;;2.57;;
14817;SDS011;7500;57.698;11.986;2023-05-14T11:21:34;5.47;;;2.40;;
14817;SDS011;7500;57.698;11.986;2023-05-14T11:24:01;4.17;;;2.47;;
14817;SDS011;7500;57.698;11.986;2023-05-14T11:26:30;6.60;;;2.20;;
14817;SDS011;7500;57.698;11.986;2023-05-14T11:28:57;4.20;;;2.47;;
14817;SDS011;7500;57.698;11.986;2023-05-14T11:31:24;4.10;;;2.60;;
14817;SDS011;7500;57.698;11.986;2023-05-14T11:33:51;4.13;;;2.77;;
14817;SDS011;7500;57.698;11.986;2023-05-14T11:36:18;3.80;;;2.30;;
14817;SDS011;7500;57.698;11.986;2023-05-14T11:38:46;5.50;;;2.53;;
14817;SDS011;7500;57.698;11.986;2023-05-14T11:41:15;6.23;;;2.50;;
14817;SDS011;7500;57.698;11.986;2023-05-14T11:43:42;3.87;;;2.40;;
14817;SDS011;7500;57.698;11.986;2023-05-14T11:46:14;2.50;;;2.30;;
14817;SDS011;7500;57.698;11.986;2023-05-14T11:48:42;4.20;;;2.60;;
14817;SDS011;7500;57.698;11.986;2023-05-14T11:51:08;4.47;;;2.30;;
14817;SDS011;7500;57.698;11.986;2023-05-14T11:53:35;6.10;;;2.87;;
14817;SDS011;7500;57.698;11.986;2023-05-14T11:56:03;5.20;;;2.20;;
14817;SDS011;7500;57.698;11.986;2023-05-14T11:58:30;3.40;;;2.50;;
14817;SDS011;7500;57.698;11.986;2023-05-14T12:00:57;3.08;;;2.40;;
14817;SDS011;7500;57.698;11.986;2023-05-14T12:03:24;4.27;;;2.70;;
14817;SDS011;7500;57.698;11.986;2023-05-14T12:05:53;4.90;;;2.40;;
14817;SDS011;7500;57.698;11.986;2023-05-14T12:08:20;4.80;;;2.90;;
14817;SDS011;7500;57.698;11.986;2023-05-14T12:10:47;9.00;;;3.10;;
14817;SDS011;7500;57.698;11.986;2023-05-14T12:13:15;4.17;;;2.80;;
14817;SDS011;7500;57.698;11.986;2023-05-14T12:15:45;4.20;;;2.67;;
14817;SDS011;7500;57.698;11.986;2023-05-14T12:18:12;3.93;;;2.53;;
14817;SDS011;7500;57.698;11.986;2023-05-14T12:20:44;5.83;;;2.87;;
14817;SDS011;7500;57.698;11.986;2023-05-14T12:23:11;5.17;;;3.00;;
14817;SDS011;7500;57.698;11.986;2023-05-14T12:25:38;6.20;;;2.60;;
14817;SDS011;7500;57.698;11.986;2023-05-14T12:28:12;5.20;;;2.57;;
14817;SDS011;7500;57.698;11.986;2023-05-14T12:30:40;4.57;;;2.80;;
14817;SDS011;7500;57.698;11.986;2023-05-14T12:33:07;3.47;;;2.70;;
14817;SDS011;7500;57.698;11.986;2023-05-14T12:35:33;3.97;;;3.00;;
14817;SDS011;7500;57.698;11.986;2023-05-14T12:38:00;6.90;;;3.00;;
14817;SDS011;7500;57.698;11.986;2023-05-14T12:40:27;8.10;;;2.97;;
14817;SDS011;7500;57.698;11.986;2023-05-14T12:42:54;8.33;;;2.40;;
14817;SDS011;7500;57.698;11.986;2023-05-14T12:45:21;4.60;;;2.43;;
14817;SDS011;7500;57.698;11.986;2023-05-14T12:47:49;3.85;;;2.20;;
14817;SDS011;7500;57.698;11.986;2023-05-14T12:50:15;3.43;;;2.23;;
14817;SDS011;7500;57.698;11.986;2023-05-14T12:52:42;3.40;;;2.27;;
14817;SDS011;7500;57.698;11.986;2023-05-14T12:55:08;6.10;;;2.30;;
14817;SDS011;7500;57.698;11.986;2023-05-14T12:57:35;5.90;;;2.00;;
14817;SDS011;7500;57.698;11.986;2023-05-14T13:00:03;3.10;;;2.00;;
14817;SDS011;7500;57.698;11.986;2023-05-14T13:02:31;4.53;;;1.73;;
14817;SDS011;7500;57.698;11.986;2023-05-14T13:04:59;2.33;;;2.07;;
14817;SDS011;7500;57.698;11.986;2023-05-14T13:07:26;2.57;;;1.97;;
14817;SDS011;7500;57.698;11.986;2023-05-14T13:09:54;2.43;;;1.80;;
14817;SDS011;7500;57.698;11.986;2023-05-14T13:12:20;4.20;;;2.07;;
14817;SDS011;7500;57.698;11.986;2023-05-14T13:14:47;3.00;;;1.93;;
14817;SDS011;7500;57.698;11.986;2023-05-14T13:17:14;5.77;;;2.00;;
14817;SDS011;7500;57.698;11.986;2023-05-14T13:19:40;1.90;;;1.80;;
14817;SDS011;7500;57.698;11.986;2023-05-14T13:22:08;3.50;;;2.00;;
14817;SDS011;7500;57.698;11.986;2023-05-14T13:24:35;4.73;;;2.23;;
14817;SDS011;7500;57.698;11.986;2023-05-14T13:27:01;3.40;;;2.20;;
14817;SDS011;7500;57.698;11.986;2023-05-14T13:29:28;3.97;;;2.00;;
14817;SDS011;7500;57.698;11.986;2023-05-14T13:31:55;2.40;;;2.20;;
14817;SDS011;7500;57.698;11.986;2023-05-14T13:34:22;3.70;;;1.87;;
14817;SDS011;7500;57.698;11.986;2023-05-14T13:36:48;7.03;;;2.30;;
14817;SDS011;7500;57.698;11.986;2023-05-14T13:39:17;3.17;;;2.00;;
14817;SDS011;7500;57.698;11.986;2023-05-14T13:41:46;4.40;;;1.90;;
14817;SDS011;7500;57.698;11.986;2023-05-14T13:44:14;6.47;;;2.17;;
14817;SDS011;7500;57.698;11.986;2023-05-14T13:46:41;3.27;;;2.00;;
14817;SDS011;7500;57.698;11.986;2023-05-14T13:49:08;5.27;;;1.80;;
14817;SDS011;7500;57.698;11.986;2023-05-14T13:51:35;5.40;;;2.00;;
14817;SDS011;7500;57.698;11.986;2023-05-14T13:54:01;3.27;;;2.00;;
14817;SDS011;7500;57.698;11.986;2023-05-14T13:56:30;5.10;;;2.20;;
14817;SDS011;7500;57.698;11.986;2023-05-14T13:58:56;5.93;;;2.10;;
14817;SDS011;7500;57.698;11.986;2023-05-14T14:01:23;1.80;;;1.70;;
14817;SDS011;7500;57.698;11.986;2023-05-14T14:03:50;5.43;;;2.20;;
14817;SDS011;7500;57.698;11.986;2023-05-14T14:06:16;3.77;;;1.90;;
14817;SDS011;7500;57.698;11.986;2023-05-14T14:08:43;6.30;;;2.10;;
14817;SDS011;7500;57.698;11.986;2023-05-14T14:11:10;5.03;;;1.97;;
14817;SDS011;7500;57.698;11.986;2023-05-14T14:13:38;4.03;;;2.10;;
14817;SDS011;7500;57.698;11.986;2023-05-14T14:16:05;3.17;;;2.00;;
14817;SDS011;7500;57.698;11.986;2023-05-14T14:18:32;4.70;;;2.20;;
14817;SDS011;7500;57.698;11.986;2023-05-14T14:20:59;3.73;;;2.20;;
14817;SDS011;7500;57.698;11.986;2023-05-14T14:23:25;1.90;;;1.73;;
14817;SDS011;7500;57.698;11.986;2023-05-14T14:25:52;4.00;;;2.10;;
14817;SDS011;7500;57.698;11.986;2023-05-14T14:28:18;5.30;;;2.03;;
14817;SDS011;7500;57.698;11.986;2023-05-14T14:30:46;1.90;;;1.80;;
14817;SDS011;7500;57.698;11.986;2023-05-14T14:33:13;2.83;;;1.90;;
14817;SDS011;7500;57.698;11.986;2023-05-14T14:35:40;4.47;;;2.03;;
14817;SDS011;7500;57.698;11.986;2023-05-14T14:38:06;3.57;;;2.03;;
14817;SDS011;7500;57.698;11.986;2023-05-14T14:40:33;2.10;;;1.90;;
14817;SDS011;7500;57.698;11.986;2023-05-14T14:43:00;4.73;;;2.00;;
14817;SDS011;7500;57.698;11.986;2023-05-14T14:45:27;2.10;;;1.97;;
14817;SDS011;7500;57.698;11.986;2023-05-14T14:50:36;4.90;;;2.20;;